sensor_id;sensor_type;location;lat;lon;timestamp;P1;durP1;ratioP1;P2;durP2;ratioP2
33740;SDS011;20065;48.380;10.892;2023-12-20T00:01:48;4.00;;;1.90;;
33740;SDS011;20065;48.380;10.892;2023-12-20T00:04:35;6.40;;;2.38;;
33740;SDS011;20065;48.380;10.892;2023-12-20T00:07:21;4.43;;;1.70;;
33740;SDS011;20065;48.380;10.892;2023-12-20T00:10:07;4.70;;;2.10;;
33740;SDS011;20065;48.380;10.892;2023-12-20T00:12:54;3.85;;;2.00;;
33740;SDS011;20065;48.380;10.892;2023-12-20T00:15:40;4.20;;;1.80;;
33740;SDS011;20065;48.380;10.892;2023-12-20T00:18:26;5.05;;;2.00;;
33740;SDS011;20065;48.380;10.892;2023-12-20T00:21:12;4.50;;;2.08;;
33740;SDS011;20065;48.380;10.892;2023-12-20T00:23:58;3.63;;;2.10;;
33740;SDS011;20065;48.380;10.892;2023-12-20T00:26:44;3.83;;;1.65;;
33740;SDS011;20065;48.380;10.892;2023-12-20T00:29:30;3.97;;;1.77;;
33740;SDS011;20065;48.380;10.892;2023-12-20T00:32:17;3.92;;;1.85;;
33740;SDS011;20065;48.380;10.892;2023-12-20T00:35:03;3.58;;;1.80;;
33740;SDS011;20065;48.380;10.892;2023-12-20T00:37:50;4.68;;;2.15;;
33740;SDS011;20065;48.380;10.892;2023-12-20T00:40:36;3.63;;;1.80;;
33740;SDS011;20065;48.380;10.892;2023-12-20T00:43:22;3.55;;;1.65;;
33740;SDS011;20065;48.380;10.892;2023-12-20T00:46:09;4.00;;;2.00;;
33740;SDS011;20065;48.380;10.892;2023-12-20T00:48:55;3.67;;;2.00;;
33740;SDS011;20065;48.380;10.892;2023-12-20T00:51:41;3.97;;;2.17;;
33740;SDS011;20065;48.380;10.892;2023-12-20T00:54:28;3.92;;;1.85;;
33740;SDS011;20065;48.380;10.892;2023-12-20T00:57:16;5.25;;;1.95;;
33740;SDS011;20065;48.380;10.892;2023-12-20T01:00:02;3.72;;;1.60;;
33740;SDS011;20065;48.380;10.892;2023-12-20T01:02:48;5.38;;;2.35;;
33740;SDS011;20065;48.380;10.892;2023-12-20T01:05:36;5.25;;;2.42;;
33740;SDS011;20065;48.380;10.892;2023-12-20T01:08:22;5.18;;;2.10;;
33740;SDS011;20065;48.380;10.892;2023-12-20T01:11:09;4.18;;;2.00;;
33740;SDS011;20065;48.380;10.892;2023-12-20T01:13:55;4.38;;;2.15;;
33740;SDS011;20065;48.380;10.892;2023-12-20T01:16:41;4.07;;;1.70;;
33740;SDS011;20065;48.380;10.892;2023-12-20T01:19:27;9.20;;;3.95;;
33740;SDS011;20065;48.380;10.892;2023-12-20T01:22:14;4.00;;;2.10;;
33740;SDS011;20065;48.380;10.892;2023-12-20T01:25:01;3.83;;;2.00;;
33740;SDS011;20065;48.380;10.892;2023-12-20T01:27:48;6.00;;;1.88;;
33740;SDS011;20065;48.380;10.892;2023-12-20T01:30:34;5.50;;;1.90;;
33740;SDS011;20065;48.380;10.892;2023-12-20T01:33:20;3.97;;;1.90;;
33740;SDS011;20065;48.380;10.892;2023-12-20T01:36:06;5.30;;;1.80;;
33740;SDS011;20065;48.380;10.892;2023-12-20T01:38:53;4.30;;;1.73;;
33740;SDS011;20065;48.380;10.892;2023-12-20T01:41:40;3.75;;;1.90;;
33740;SDS011;20065;48.380;10.892;2023-12-20T01:44:26;3.83;;;1.58;;
33740;SDS011;20065;48.380;10.892;2023-12-20T01:47:12;3.95;;;1.70;;
33740;SDS011;20065;48.380;10.892;2023-12-20T01:49:58;3.70;;;1.60;;
33740;SDS011;20065;48.380;10.892;2023-12-20T01:52:45;2.90;;;1.48;;
33740;SDS011;20065;48.380;10.892;2023-12-20T01:55:31;4.10;;;1.85;;
33740;SDS011;20065;48.380;10.892;2023-12-20T01:58:20;3.10;;;1.60;;
33740;SDS011;20065;48.380;10.892;2023-12-20T02:01:07;4.30;;;1.77;;
33740;SDS011;20065;48.380;10.892;2023-12-20T02:03:53;4.10;;;1.90;;
33740;SDS011;20065;48.380;10.892;2023-12-20T02:06:40;3.53;;;1.70;;
33740;SDS011;20065;48.380;10.892;2023-12-20T02:09:28;3.05;;;1.42;;
33740;SDS011;20065;48.380;10.892;2023-12-20T02:12:14;4.88;;;2.67;;
33740;SDS011;20065;48.380;10.892;2023-12-20T02:15:01;2.80;;;1.30;;
33740;SDS011;20065;48.380;10.892;2023-12-20T02:17:47;4.63;;;1.90;;
33740;SDS011;20065;48.380;10.892;2023-12-20T02:20:34;3.08;;;1.60;;
33740;SDS011;20065;48.380;10.892;2023-12-20T02:23:20;3.95;;;1.88;;
33740;SDS011;20065;48.380;10.892;2023-12-20T02:26:07;4.05;;;1.70;;
33740;SDS011;20065;48.380;10.892;2023-12-20T02:28:53;3.63;;;1.75;;
33740;SDS011;20065;48.380;10.892;2023-12-20T02:31:40;3.80;;;1.73;;
33740;SDS011;20065;48.380;10.892;2023-12-20T02:34:26;4.07;;;1.98;;
33740;SDS011;20065;48.380;10.892;2023-12-20T02:37:12;5.05;;;2.10;;
33740;SDS011;20065;48.380;10.892;2023-12-20T02:39:58;4.70;;;1.80;;
33740;SDS011;20065;48.380;10.892;2023-12-20T02:42:44;3.85;;;1.80;;
33740;SDS011;20065;48.380;10.892;2023-12-20T02:45:30;3.30;;;1.80;;
33740;SDS011;20065;48.380;10.892;2023-12-20T02:48:20;4.50;;;2.30;;
33740;SDS011;20065;48.380;10.892;2023-12-20T02:51:06;6.22;;;2.38;;
33740;SDS011;20065;48.380;10.892;2023-12-20T02:53:52;4.80;;;2.53;;
33740;SDS011;20065;48.380;10.892;2023-12-20T02:56:39;4.28;;;2.20;;
33740;SDS011;20065;48.380;10.892;2023-12-20T02:59:25;4.30;;;2.35;;
33740;SDS011;20065;48.380;10.892;2023-12-20T03:02:11;5.13;;;2.63;;
33740;SDS011;20065;48.380;10.892;2023-12-20T03:04:57;4.60;;;2.80;;
33740;SDS011;20065;48.380;10.892;2023-12-20T03:07:46;3.92;;;2.60;;
33740;SDS011;20065;48.380;10.892;2023-12-20T03:10:32;4.10;;;2.10;;
33740;SDS011;20065;48.380;10.892;2023-12-20T03:13:18;4.43;;;2.42;;
33740;SDS011;20065;48.380;10.892;2023-12-20T03:16:08;7.03;;;3.20;;
33740;SDS011;20065;48.380;10.892;2023-12-20T03:18:58;7.03;;;2.70;;
33740;SDS011;20065;48.380;10.892;2023-12-20T03:21:44;4.93;;;2.67;;
33740;SDS011;20065;48.380;10.892;2023-12-20T03:24:31;6.80;;;3.30;;
33740;SDS011;20065;48.380;10.892;2023-12-20T03:27:17;5.03;;;3.30;;
33740;SDS011;20065;48.380;10.892;2023-12-20T03:30:03;6.13;;;3.20;;
33740;SDS011;20065;48.380;10.892;2023-12-20T03:32:50;4.30;;;2.65;;
33740;SDS011;20065;48.380;10.892;2023-12-20T03:35:36;7.05;;;3.35;;
33740;SDS011;20065;48.380;10.892;2023-12-20T03:38:22;6.00;;;3.50;;
33740;SDS011;20065;48.380;10.892;2023-12-20T03:41:11;5.68;;;3.47;;
33740;SDS011;20065;48.380;10.892;2023-12-20T03:43:57;5.20;;;3.25;;
33740;SDS011;20065;48.380;10.892;2023-12-20T03:46:43;4.63;;;2.88;;
33740;SDS011;20065;48.380;10.892;2023-12-20T03:49:31;5.63;;;2.95;;
33740;SDS011;20065;48.380;10.892;2023-12-20T03:52:17;6.35;;;3.50;;
33740;SDS011;20065;48.380;10.892;2023-12-20T03:55:03;6.10;;;3.45;;
33740;SDS011;20065;48.380;10.892;2023-12-20T03:57:50;5.50;;;3.70;;
33740;SDS011;20065;48.380;10.892;2023-12-20T04:00:36;7.38;;;3.75;;
33740;SDS011;20065;48.380;10.892;2023-12-20T04:03:22;8.48;;;4.10;;
33740;SDS011;20065;48.380;10.892;2023-12-20T04:06:08;6.57;;;4.43;;
33740;SDS011;20065;48.380;10.892;2023-12-20T04:08:58;8.75;;;5.15;;
33740;SDS011;20065;48.380;10.892;2023-12-20T04:11:44;7.28;;;4.60;;
33740;SDS011;20065;48.380;10.892;2023-12-20T04:14:30;6.40;;;4.35;;
33740;SDS011;20065;48.380;10.892;2023-12-20T04:17:17;8.65;;;4.72;;
33740;SDS011;20065;48.380;10.892;2023-12-20T04:20:04;8.73;;;5.13;;
33740;SDS011;20065;48.380;10.892;2023-12-20T04:22:50;8.57;;;5.22;;
33740;SDS011;20065;48.380;10.892;2023-12-20T04:25:36;6.43;;;4.15;;
33740;SDS011;20065;48.380;10.892;2023-12-20T04:28:22;8.05;;;4.78;;
33740;SDS011;20065;48.380;10.892;2023-12-20T04:31:09;7.15;;;4.07;;
33740;SDS011;20065;48.380;10.892;2023-12-20T04:33:56;6.30;;;4.50;;
33740;SDS011;20065;48.380;10.892;2023-12-20T04:36:42;7.93;;;5.00;;
33740;SDS011;20065;48.380;10.892;2023-12-20T04:39:30;8.63;;;5.43;;
33740;SDS011;20065;48.380;10.892;2023-12-20T04:42:16;7.55;;;4.95;;
33740;SDS011;20065;48.380;10.892;2023-12-20T04:45:03;8.00;;;4.70;;
33740;SDS011;20065;48.380;10.892;2023-12-20T04:47:49;8.18;;;5.57;;
33740;SDS011;20065;48.380;10.892;2023-12-20T04:50:36;7.53;;;5.25;;
33740;SDS011;20065;48.380;10.892;2023-12-20T04:53:22;11.00;;;5.40;;
33740;SDS011;20065;48.380;10.892;2023-12-20T04:56:08;8.75;;;5.28;;
33740;SDS011;20065;48.380;10.892;2023-12-20T04:58:54;13.88;;;5.55;;
33740;SDS011;20065;48.380;10.892;2023-12-20T05:01:41;9.95;;;5.93;;
33740;SDS011;20065;48.380;10.892;2023-12-20T05:04:27;9.00;;;5.97;;
33740;SDS011;20065;48.380;10.892;2023-12-20T05:07:13;9.20;;;5.60;;
33740;SDS011;20065;48.380;10.892;2023-12-20T05:09:59;8.88;;;5.10;;
33740;SDS011;20065;48.380;10.892;2023-12-20T05:12:48;9.30;;;5.85;;
33740;SDS011;20065;48.380;10.892;2023-12-20T05:15:35;9.20;;;5.93;;
33740;SDS011;20065;48.380;10.892;2023-12-20T05:18:21;9.48;;;5.47;;
33740;SDS011;20065;48.380;10.892;2023-12-20T05:21:08;9.43;;;5.15;;
33740;SDS011;20065;48.380;10.892;2023-12-20T05:23:54;9.45;;;5.53;;
33740;SDS011;20065;48.380;10.892;2023-12-20T05:26:41;8.40;;;5.38;;
33740;SDS011;20065;48.380;10.892;2023-12-20T05:29:27;9.65;;;6.15;;
33740;SDS011;20065;48.380;10.892;2023-12-20T05:32:13;9.00;;;5.75;;
33740;SDS011;20065;48.380;10.892;2023-12-20T05:34:59;7.32;;;4.55;;
33740;SDS011;20065;48.380;10.892;2023-12-20T05:37:46;7.47;;;4.80;;
33740;SDS011;20065;48.380;10.892;2023-12-20T05:40:32;8.13;;;4.82;;
33740;SDS011;20065;48.380;10.892;2023-12-20T05:43:18;9.07;;;4.65;;
33740;SDS011;20065;48.380;10.892;2023-12-20T05:46:05;9.32;;;4.72;;
33740;SDS011;20065;48.380;10.892;2023-12-20T05:48:51;11.57;;;4.25;;
33740;SDS011;20065;48.380;10.892;2023-12-20T05:51:37;8.32;;;4.47;;
33740;SDS011;20065;48.380;10.892;2023-12-20T05:54:24;7.20;;;4.60;;
33740;SDS011;20065;48.380;10.892;2023-12-20T05:57:10;7.07;;;4.38;;
33740;SDS011;20065;48.380;10.892;2023-12-20T05:59:56;6.82;;;4.15;;
33740;SDS011;20065;48.380;10.892;2023-12-20T06:02:42;8.65;;;4.93;;
33740;SDS011;20065;48.380;10.892;2023-12-20T06:05:28;8.60;;;5.20;;
33740;SDS011;20065;48.380;10.892;2023-12-20T06:08:15;9.18;;;5.22;;
33740;SDS011;20065;48.380;10.892;2023-12-20T06:11:01;10.00;;;5.72;;
33740;SDS011;20065;48.380;10.892;2023-12-20T06:13:48;9.25;;;5.60;;
33740;SDS011;20065;48.380;10.892;2023-12-20T06:16:37;8.43;;;4.90;;
33740;SDS011;20065;48.380;10.892;2023-12-20T06:19:23;8.90;;;5.90;;
33740;SDS011;20065;48.380;10.892;2023-12-20T06:22:09;9.65;;;5.63;;
33740;SDS011;20065;48.380;10.892;2023-12-20T06:24:55;13.30;;;6.18;;
33740;SDS011;20065;48.380;10.892;2023-12-20T06:27:41;10.93;;;6.25;;
33740;SDS011;20065;48.380;10.892;2023-12-20T06:30:27;9.00;;;5.38;;
33740;SDS011;20065;48.380;10.892;2023-12-20T06:33:14;12.57;;;6.50;;
33740;SDS011;20065;48.380;10.892;2023-12-20T06:36:00;12.05;;;6.63;;
33740;SDS011;20065;48.380;10.892;2023-12-20T06:38:46;10.55;;;6.75;;
33740;SDS011;20065;48.380;10.892;2023-12-20T06:41:32;11.70;;;7.40;;
33740;SDS011;20065;48.380;10.892;2023-12-20T06:44:18;15.77;;;9.05;;
33740;SDS011;20065;48.380;10.892;2023-12-20T06:47:05;15.02;;;8.77;;
33740;SDS011;20065;48.380;10.892;2023-12-20T06:49:51;14.98;;;9.13;;
33740;SDS011;20065;48.380;10.892;2023-12-20T06:52:37;15.65;;;9.10;;
33740;SDS011;20065;48.380;10.892;2023-12-20T06:55:24;14.13;;;9.75;;
33740;SDS011;20065;48.380;10.892;2023-12-20T06:58:10;19.77;;;11.18;;
33740;SDS011;20065;48.380;10.892;2023-12-20T07:00:56;14.82;;;9.85;;
33740;SDS011;20065;48.380;10.892;2023-12-20T07:03:42;18.95;;;10.63;;
33740;SDS011;20065;48.380;10.892;2023-12-20T07:06:28;16.08;;;9.85;;
33740;SDS011;20065;48.380;10.892;2023-12-20T07:09:15;18.65;;;11.73;;
33740;SDS011;20065;48.380;10.892;2023-12-20T07:12:01;17.77;;;11.60;;
33740;SDS011;20065;48.380;10.892;2023-12-20T07:14:50;18.92;;;12.20;;
33740;SDS011;20065;48.380;10.892;2023-12-20T07:17:42;21.25;;;12.20;;
33740;SDS011;20065;48.380;10.892;2023-12-20T07:20:33;16.48;;;10.70;;
33740;SDS011;20065;48.380;10.892;2023-12-20T07:23:22;16.55;;;10.30;;
33740;SDS011;20065;48.380;10.892;2023-12-20T07:26:08;15.40;;;9.50;;
33740;SDS011;20065;48.380;10.892;2023-12-20T07:28:56;18.02;;;10.50;;
33740;SDS011;20065;48.380;10.892;2023-12-20T07:31:50;16.23;;;10.13;;
33740;SDS011;20065;48.380;10.892;2023-12-20T07:34:37;14.35;;;9.27;;
33740;SDS011;20065;48.380;10.892;2023-12-20T07:37:25;13.68;;;10.05;;
33740;SDS011;20065;48.380;10.892;2023-12-20T07:40:17;12.65;;;8.23;;
33740;SDS011;20065;48.380;10.892;2023-12-20T07:43:05;15.80;;;10.70;;
33740;SDS011;20065;48.380;10.892;2023-12-20T07:45:52;15.73;;;10.63;;
33740;SDS011;20065;48.380;10.892;2023-12-20T07:48:38;18.05;;;10.70;;
33740;SDS011;20065;48.380;10.892;2023-12-20T07:51:24;16.25;;;10.68;;
33740;SDS011;20065;48.380;10.892;2023-12-20T07:54:10;16.65;;;10.13;;
33740;SDS011;20065;48.380;10.892;2023-12-20T07:56:57;16.23;;;10.70;;
33740;SDS011;20065;48.380;10.892;2023-12-20T07:59:45;17.00;;;9.73;;
33740;SDS011;20065;48.380;10.892;2023-12-20T08:02:32;14.50;;;10.32;;
33740;SDS011;20065;48.380;10.892;2023-12-20T08:05:21;16.30;;;10.55;;
33740;SDS011;20065;48.380;10.892;2023-12-20T08:08:14;14.70;;;9.13;;
33740;SDS011;20065;48.380;10.892;2023-12-20T08:11:02;13.98;;;9.10;;
33740;SDS011;20065;48.380;10.892;2023-12-20T08:13:51;14.30;;;8.88;;
33740;SDS011;20065;48.380;10.892;2023-12-20T08:16:40;17.25;;;10.57;;
33740;SDS011;20065;48.380;10.892;2023-12-20T08:19:26;14.77;;;9.95;;
33740;SDS011;20065;48.380;10.892;2023-12-20T08:22:12;14.43;;;8.35;;
33740;SDS011;20065;48.380;10.892;2023-12-20T08:24:58;15.55;;;9.10;;
33740;SDS011;20065;48.380;10.892;2023-12-20T08:27:45;12.70;;;8.45;;
33740;SDS011;20065;48.380;10.892;2023-12-20T08:30:32;16.15;;;9.05;;
33740;SDS011;20065;48.380;10.892;2023-12-20T08:33:18;13.50;;;8.65;;
33740;SDS011;20065;48.380;10.892;2023-12-20T08:36:05;14.10;;;8.40;;
33740;SDS011;20065;48.380;10.892;2023-12-20T08:38:51;15.30;;;8.77;;
33740;SDS011;20065;48.380;10.892;2023-12-20T08:41:37;11.63;;;8.15;;
33740;SDS011;20065;48.380;10.892;2023-12-20T08:44:23;13.55;;;9.50;;
33740;SDS011;20065;48.380;10.892;2023-12-20T08:47:09;12.73;;;9.02;;
33740;SDS011;20065;48.380;10.892;2023-12-20T08:49:58;12.32;;;8.45;;
33740;SDS011;20065;48.380;10.892;2023-12-20T08:52:45;11.13;;;7.00;;
33740;SDS011;20065;48.380;10.892;2023-12-20T08:55:32;12.95;;;8.15;;
33740;SDS011;20065;48.380;10.892;2023-12-20T08:58:18;15.05;;;7.75;;
33740;SDS011;20065;48.380;10.892;2023-12-20T09:01:06;12.80;;;7.57;;
33740;SDS011;20065;48.380;10.892;2023-12-20T09:03:53;14.27;;;7.90;;
33740;SDS011;20065;48.380;10.892;2023-12-20T09:06:40;12.40;;;7.68;;
33740;SDS011;20065;48.380;10.892;2023-12-20T09:09:26;14.07;;;8.75;;
33740;SDS011;20065;48.380;10.892;2023-12-20T09:12:14;9.88;;;6.07;;
33740;SDS011;20065;48.380;10.892;2023-12-20T09:15:00;10.73;;;7.20;;
33740;SDS011;20065;48.380;10.892;2023-12-20T09:17:48;12.68;;;7.75;;
33740;SDS011;20065;48.380;10.892;2023-12-20T09:20:35;16.98;;;6.88;;
33740;SDS011;20065;48.380;10.892;2023-12-20T09:23:21;10.75;;;6.40;;
33740;SDS011;20065;48.380;10.892;2023-12-20T09:26:08;11.77;;;7.15;;
33740;SDS011;20065;48.380;10.892;2023-12-20T09:28:57;13.10;;;5.82;;
33740;SDS011;20065;48.380;10.892;2023-12-20T09:31:58;10.07;;;6.55;;
33740;SDS011;20065;48.380;10.892;2023-12-20T09:34:56;9.88;;;6.10;;
33740;SDS011;20065;48.380;10.892;2023-12-20T09:37:43;9.75;;;6.40;;
33740;SDS011;20065;48.380;10.892;2023-12-20T09:40:35;8.20;;;5.90;;
33740;SDS011;20065;48.380;10.892;2023-12-20T09:43:29;10.63;;;6.43;;
33740;SDS011;20065;48.380;10.892;2023-12-20T09:46:16;9.73;;;6.50;;
33740;SDS011;20065;48.380;10.892;2023-12-20T09:49:18;9.65;;;5.60;;
33740;SDS011;20065;48.380;10.892;2023-12-20T09:52:08;15.77;;;7.53;;
33740;SDS011;20065;48.380;10.892;2023-12-20T09:55:35;11.90;;;6.00;;
33740;SDS011;20065;48.380;10.892;2023-12-20T09:58:22;8.60;;;5.85;;
33740;SDS011;20065;48.380;10.892;2023-12-20T10:01:41;7.93;;;5.13;;
33740;SDS011;20065;48.380;10.892;2023-12-20T10:08:06;9.38;;;5.15;;
33740;SDS011;20065;48.380;10.892;2023-12-20T10:10:52;7.55;;;4.72;;
33740;SDS011;20065;48.380;10.892;2023-12-20T10:13:47;7.25;;;4.80;;
33740;SDS011;20065;48.380;10.892;2023-12-20T10:17:02;5.45;;;3.60;;
33740;SDS011;20065;48.380;10.892;2023-12-20T10:19:51;7.10;;;4.38;;
33740;SDS011;20065;48.380;10.892;2023-12-20T10:29:44;7.03;;;4.40;;
33740;SDS011;20065;48.380;10.892;2023-12-20T10:32:31;9.10;;;5.40;;
33740;SDS011;20065;48.380;10.892;2023-12-20T10:35:19;9.50;;;5.63;;
33740;SDS011;20065;48.380;10.892;2023-12-20T10:38:08;7.55;;;4.72;;
33740;SDS011;20065;48.380;10.892;2023-12-20T10:41:23;8.70;;;5.38;;
33740;SDS011;20065;48.380;10.892;2023-12-20T10:48:42;8.07;;;4.90;;
33740;SDS011;20065;48.380;10.892;2023-12-20T10:52:35;6.40;;;4.32;;
33740;SDS011;20065;48.380;10.892;2023-12-20T10:55:45;9.20;;;4.65;;
33740;SDS011;20065;48.380;10.892;2023-12-20T11:14:47;4.53;;;3.00;;
33740;SDS011;20065;48.380;10.892;2023-12-20T11:17:35;5.05;;;2.20;;
33740;SDS011;20065;48.380;10.892;2023-12-20T11:20:40;5.68;;;2.70;;
33740;SDS011;20065;48.380;10.892;2023-12-20T11:23:29;4.65;;;3.00;;
33740;SDS011;20065;48.380;10.892;2023-12-20T11:26:22;4.53;;;3.10;;
33740;SDS011;20065;48.380;10.892;2023-12-20T11:58:54;5.28;;;3.03;;
33740;SDS011;20065;48.380;10.892;2023-12-20T12:01:47;3.80;;;2.10;;
33740;SDS011;20065;48.380;10.892;2023-12-20T12:04:41;4.68;;;1.92;;
33740;SDS011;20065;48.380;10.892;2023-12-20T12:07:30;7.18;;;2.78;;
33740;SDS011;20065;48.380;10.892;2023-12-20T12:10:34;5.15;;;2.30;;
33740;SDS011;20065;48.380;10.892;2023-12-20T12:13:20;5.40;;;2.30;;
33740;SDS011;20065;48.380;10.892;2023-12-20T12:16:07;3.95;;;1.80;;
33740;SDS011;20065;48.380;10.892;2023-12-20T12:18:58;4.43;;;2.50;;
33740;SDS011;20065;48.380;10.892;2023-12-20T12:26:10;5.13;;;2.33;;
33740;SDS011;20065;48.380;10.892;2023-12-20T12:33:25;3.45;;;2.05;;
33740;SDS011;20065;48.380;10.892;2023-12-20T12:36:12;7.15;;;2.88;;
33740;SDS011;20065;48.380;10.892;2023-12-20T12:39:04;5.40;;;2.38;;
33740;SDS011;20065;48.380;10.892;2023-12-20T12:41:51;4.82;;;2.53;;
33740;SDS011;20065;48.380;10.892;2023-12-20T12:44:37;5.28;;;2.15;;
33740;SDS011;20065;48.380;10.892;2023-12-20T12:47:29;5.45;;;2.47;;
33740;SDS011;20065;48.380;10.892;2023-12-20T12:50:51;8.30;;;2.40;;
33740;SDS011;20065;48.380;10.892;2023-12-20T12:54:01;7.20;;;2.60;;
33740;SDS011;20065;48.380;10.892;2023-12-20T12:58:00;6.93;;;1.77;;
33740;SDS011;20065;48.380;10.892;2023-12-20T13:01:06;3.78;;;1.75;;
33740;SDS011;20065;48.380;10.892;2023-12-20T13:03:53;7.07;;;2.17;;
33740;SDS011;20065;48.380;10.892;2023-12-20T13:06:40;5.22;;;2.10;;
33740;SDS011;20065;48.380;10.892;2023-12-20T13:09:27;5.63;;;1.90;;
33740;SDS011;20065;48.380;10.892;2023-12-20T13:12:21;9.77;;;2.00;;
33740;SDS011;20065;48.380;10.892;2023-12-20T13:15:08;6.43;;;3.67;;
33740;SDS011;20065;48.380;10.892;2023-12-20T13:18:11;4.57;;;1.95;;
33740;SDS011;20065;48.380;10.892;2023-12-20T13:21:01;7.18;;;1.95;;
33740;SDS011;20065;48.380;10.892;2023-12-20T13:23:47;6.00;;;1.80;;
33740;SDS011;20065;48.380;10.892;2023-12-20T13:26:34;3.88;;;1.50;;
33740;SDS011;20065;48.380;10.892;2023-12-20T13:29:24;4.05;;;1.25;;
33740;SDS011;20065;48.380;10.892;2023-12-20T13:32:31;8.65;;;1.73;;
33740;SDS011;20065;48.380;10.892;2023-12-20T13:35:20;7.28;;;2.08;;
33740;SDS011;20065;48.380;10.892;2023-12-20T13:38:09;5.40;;;1.73;;
33740;SDS011;20065;48.380;10.892;2023-12-20T13:40:55;7.05;;;1.48;;
33740;SDS011;20065;48.380;10.892;2023-12-20T13:43:51;3.45;;;1.38;;
33740;SDS011;20065;48.380;10.892;2023-12-20T13:46:44;6.57;;;2.10;;
33740;SDS011;20065;48.380;10.892;2023-12-20T13:49:38;6.97;;;1.63;;
33740;SDS011;20065;48.380;10.892;2023-12-20T13:52:27;4.15;;;1.60;;
33740;SDS011;20065;48.380;10.892;2023-12-20T13:55:19;3.42;;;1.45;;
33740;SDS011;20065;48.380;10.892;2023-12-20T14:01:45;4.53;;;1.85;;
33740;SDS011;20065;48.380;10.892;2023-12-20T14:05:09;6.13;;;1.70;;
33740;SDS011;20065;48.380;10.892;2023-12-20T14:08:09;3.10;;;1.70;;
33740;SDS011;20065;48.380;10.892;2023-12-20T14:10:58;7.13;;;1.90;;
33740;SDS011;20065;48.380;10.892;2023-12-20T14:13:47;3.90;;;1.50;;
33740;SDS011;20065;48.380;10.892;2023-12-20T14:16:34;4.43;;;1.73;;
33740;SDS011;20065;48.380;10.892;2023-12-20T14:19:24;4.82;;;1.88;;
33740;SDS011;20065;48.380;10.892;2023-12-20T14:22:30;8.20;;;1.80;;
33740;SDS011;20065;48.380;10.892;2023-12-20T14:25:19;7.13;;;2.13;;
33740;SDS011;20065;48.380;10.892;2023-12-20T14:28:07;6.90;;;1.80;;
33740;SDS011;20065;48.380;10.892;2023-12-20T14:30:55;7.18;;;1.98;;
33740;SDS011;20065;48.380;10.892;2023-12-20T14:33:53;3.95;;;1.55;;
33740;SDS011;20065;48.380;10.892;2023-12-20T14:36:47;4.28;;;1.80;;
33740;SDS011;20065;48.380;10.892;2023-12-20T14:39:40;4.63;;;1.65;;
33740;SDS011;20065;48.380;10.892;2023-12-20T14:42:27;4.88;;;1.45;;
33740;SDS011;20065;48.380;10.892;2023-12-20T14:45:17;3.95;;;1.60;;
33740;SDS011;20065;48.380;10.892;2023-12-20T14:48:13;6.60;;;1.63;;
33740;SDS011;20065;48.380;10.892;2023-12-20T14:50:59;6.50;;;1.95;;
33740;SDS011;20065;48.380;10.892;2023-12-20T14:53:46;6.72;;;1.40;;
33740;SDS011;20065;48.380;10.892;2023-12-20T14:56:32;3.78;;;1.60;;
33740;SDS011;20065;48.380;10.892;2023-12-20T15:02:32;4.00;;;1.42;;
33740;SDS011;20065;48.380;10.892;2023-12-20T15:05:18;4.40;;;1.85;;
33740;SDS011;20065;48.380;10.892;2023-12-20T15:08:11;4.43;;;1.20;;
33740;SDS011;20065;48.380;10.892;2023-12-20T15:10:58;6.20;;;1.65;;
33740;SDS011;20065;48.380;10.892;2023-12-20T15:13:45;4.65;;;1.60;;
33740;SDS011;20065;48.380;10.892;2023-12-20T15:16:44;3.13;;;1.30;;
33740;SDS011;20065;48.380;10.892;2023-12-20T15:19:31;3.50;;;1.80;;
33740;SDS011;20065;48.380;10.892;2023-12-20T15:22:17;6.65;;;1.85;;
33740;SDS011;20065;48.380;10.892;2023-12-20T15:25:04;5.25;;;1.88;;
33740;SDS011;20065;48.380;10.892;2023-12-20T15:28:01;5.35;;;1.65;;
33740;SDS011;20065;48.380;10.892;2023-12-20T15:30:59;8.18;;;2.20;;
33740;SDS011;20065;48.380;10.892;2023-12-20T15:33:48;5.85;;;1.80;;
33740;SDS011;20065;48.380;10.892;2023-12-20T15:36:45;4.88;;;1.52;;
33740;SDS011;20065;48.380;10.892;2023-12-20T15:39:54;3.88;;;1.48;;
33740;SDS011;20065;48.380;10.892;2023-12-20T15:42:44;5.75;;;1.38;;
33740;SDS011;20065;48.380;10.892;2023-12-20T15:49:25;3.35;;;1.65;;
33740;SDS011;20065;48.380;10.892;2023-12-20T15:52:11;7.60;;;1.65;;
33740;SDS011;20065;48.380;10.892;2023-12-20T16:38:43;3.70;;;1.65;;
33740;SDS011;20065;48.380;10.892;2023-12-20T16:41:29;6.57;;;1.77;;
33740;SDS011;20065;48.380;10.892;2023-12-20T16:44:26;5.88;;;1.75;;
33740;SDS011;20065;48.380;10.892;2023-12-20T16:47:51;5.53;;;1.92;;
33740;SDS011;20065;48.380;10.892;2023-12-20T16:54:29;4.93;;;1.35;;
33740;SDS011;20065;48.380;10.892;2023-12-20T16:57:30;4.13;;;1.40;;
33740;SDS011;20065;48.380;10.892;2023-12-20T17:00:17;6.15;;;1.88;;
33740;SDS011;20065;48.380;10.892;2023-12-20T17:03:03;6.32;;;1.55;;
33740;SDS011;20065;48.380;10.892;2023-12-20T17:05:49;3.75;;;1.65;;
33740;SDS011;20065;48.380;10.892;2023-12-20T17:08:36;4.80;;;1.30;;
33740;SDS011;20065;48.380;10.892;2023-12-20T17:11:25;5.13;;;1.13;;
33740;SDS011;20065;48.380;10.892;2023-12-20T17:14:11;5.10;;;2.20;;
33740;SDS011;20065;48.380;10.892;2023-12-20T17:17:01;7.05;;;1.30;;
33740;SDS011;20065;48.380;10.892;2023-12-20T17:19:51;7.93;;;1.98;;
33740;SDS011;20065;48.380;10.892;2023-12-20T17:22:38;6.20;;;1.70;;
33740;SDS011;20065;48.380;10.892;2023-12-20T17:25:25;3.85;;;1.58;;
33740;SDS011;20065;48.380;10.892;2023-12-20T17:28:11;4.32;;;1.42;;
33740;SDS011;20065;48.380;10.892;2023-12-20T17:31:01;7.22;;;1.80;;
33740;SDS011;20065;48.380;10.892;2023-12-20T17:33:50;3.70;;;1.50;;
33740;SDS011;20065;48.380;10.892;2023-12-20T17:36:46;3.92;;;1.73;;
33740;SDS011;20065;48.380;10.892;2023-12-20T17:39:32;4.68;;;1.50;;
33740;SDS011;20065;48.380;10.892;2023-12-20T17:42:23;2.88;;;1.23;;
33740;SDS011;20065;48.380;10.892;2023-12-20T17:45:09;5.47;;;1.65;;
33740;SDS011;20065;48.380;10.892;2023-12-20T17:47:58;5.32;;;1.60;;
33740;SDS011;20065;48.380;10.892;2023-12-20T17:50:54;9.05;;;2.08;;
33740;SDS011;20065;48.380;10.892;2023-12-20T17:53:41;6.40;;;1.90;;
33740;SDS011;20065;48.380;10.892;2023-12-20T17:56:27;9.93;;;2.33;;
33740;SDS011;20065;48.380;10.892;2023-12-20T17:59:21;4.07;;;1.70;;
33740;SDS011;20065;48.380;10.892;2023-12-20T18:02:08;5.65;;;1.30;;
33740;SDS011;20065;48.380;10.892;2023-12-20T18:04:54;2.83;;;1.20;;
33740;SDS011;20065;48.380;10.892;2023-12-20T18:07:41;4.13;;;1.40;;
33740;SDS011;20065;48.380;10.892;2023-12-20T18:10:31;4.50;;;1.42;;
33740;SDS011;20065;48.380;10.892;2023-12-20T18:13:17;8.68;;;1.73;;
33740;SDS011;20065;48.380;10.892;2023-12-20T18:16:04;6.13;;;1.58;;
33740;SDS011;20065;48.380;10.892;2023-12-20T18:18:57;4.55;;;1.48;;
33740;SDS011;20065;48.380;10.892;2023-12-20T18:21:43;5.68;;;1.30;;
33740;SDS011;20065;48.380;10.892;2023-12-20T18:24:29;11.05;;;2.72;;
33740;SDS011;20065;48.380;10.892;2023-12-20T18:27:15;4.60;;;1.67;;
33740;SDS011;20065;48.380;10.892;2023-12-20T18:30:01;11.40;;;1.83;;
33740;SDS011;20065;48.380;10.892;2023-12-20T18:50:42;11.07;;;1.90;;
33740;SDS011;20065;48.380;10.892;2023-12-20T18:53:39;9.70;;;2.00;;
33740;SDS011;20065;48.380;10.892;2023-12-20T18:56:36;10.65;;;1.85;;
33740;SDS011;20065;48.380;10.892;2023-12-20T18:59:23;4.88;;;1.58;;
33740;SDS011;20065;48.380;10.892;2023-12-20T19:02:14;6.72;;;1.55;;
33740;SDS011;20065;48.380;10.892;2023-12-20T19:05:05;8.45;;;2.33;;
33740;SDS011;20065;48.380;10.892;2023-12-20T19:07:55;6.97;;;1.60;;